Time;durP1;ratioP1;P1;durP2;ratioP2;P2;SDS_P1;SDS_P2;PMS_P1;PMS_P2;Temp;Humidity;BMP_temperature;BMP_pressure;BME280_temperature;BME280_humidity;BME280_pressure;Samples;Min_cycle;Max_cycle;Signal;HPM_P1;HPM_P2
2021/07/26 00:01:25;;;;;;;17.08;11.45;;;17.90;99.90;;;;;;5072315;28;20230;-50
2021/07/26 00:03:54;;;;;;;14.68;12.05;;;17.90;99.90;;;;;;5072309;28;20203;-53
2021/07/26 00:06:22;;;;;;;22.73;13.05;;;17.90;99.90;;;;;;5072627;28;20211;-55
2021/07/26 00:08:50;;;;;;;19.00;12.52;;;17.80;99.90;;;;;;5072703;28;20233;-51
2021/07/26 00:11:19;;;;;;;20.38;12.25;;;17.80;99.90;;;;;;5072629;28;20631;-51
2021/07/26 00:13:47;;;;;;;19.60;12.98;;;17.80;99.90;;;;;;5072422;28;20227;-52
2021/07/26 00:16:15;;;;;;;14.40;11.20;;;17.80;99.90;;;;;;5072282;28;20701;-56
2021/07/26 00:18:43;;;;;;;14.18;11.52;;;17.80;99.90;;;;;;5072072;28;20582;-51
2021/07/26 00:21:11;;;;;;;22.27;13.25;;;17.80;99.90;;;;;;5072505;28;20253;-51
2021/07/26 00:23:39;;;;;;;18.23;12.65;;;17.70;99.90;;;;;;5072159;28;20208;-53
2021/07/26 00:26:07;;;;;;;21.98;12.80;;;17.70;99.90;;;;;;5072338;28;20290;-54
2021/07/26 00:28:36;;;;;;;16.35;12.60;;;17.70;99.90;;;;;;5072358;28;20294;-51
2021/07/26 00:31:04;;;;;;;13.68;12.13;;;17.70;99.90;;;;;;5072212;28;20294;-52
2021/07/26 00:34:10;;;;;;;15.35;13.13;;;17.70;99.90;;;;;;5072137;28;20698;-52
2021/07/26 00:36:40;;;;;;;14.70;12.15;;;17.70;99.90;;;;;;5072210;28;20207;-54
2021/07/26 00:39:09;;;;;;;13.63;12.07;;;17.70;99.90;;;;;;5072067;28;20290;-53
2021/07/26 00:41:38;;;;;;;16.05;12.85;;;17.60;99.90;;;;;;5072282;28;20219;-52
2021/07/26 00:44:08;;;;;;;17.42;11.98;;;17.60;99.90;;;;;;5072312;28;20218;-53
2021/07/26 00:46:36;;;;;;;14.43;12.82;;;17.60;99.90;;;;;;5072095;28;20303;-52
2021/07/26 00:49:07;;;;;;;17.88;12.93;;;17.60;99.90;;;;;;5071985;28;20626;-54
2021/07/26 00:51:35;;;;;;;17.35;12.60;;;17.60;99.90;;;;;;5071952;28;20217;-52
2021/07/26 00:54:04;;;;;;;15.45;13.13;;;17.70;99.90;;;;;;5071700;28;20353;-54
2021/07/26 00:56:33;;;;;;;16.40;12.23;;;17.70;99.90;;;;;;5072049;28;20211;-51
2021/07/26 00:59:01;;;;;;;18.52;13.00;;;17.60;99.90;;;;;;5071879;28;20207;-49
2021/07/26 01:01:31;;;;;;;18.38;11.70;;;17.60;99.90;;;;;;5074110;28;20301;-54
2021/07/26 01:03:59;;;;;;;16.80;11.88;;;17.70;99.90;;;;;;5076082;28;20207;-53
2021/07/26 01:06:27;;;;;;;15.60;12.25;;;17.60;99.90;;;;;;5075816;28;20298;-50
2021/07/26 01:08:55;;;;;;;14.00;11.52;;;17.60;99.90;;;;;;5075911;28;20306;-52
2021/07/26 01:11:23;;;;;;;18.83;12.20;;;17.70;99.90;;;;;;5075786;28;20753;-52
2021/07/26 01:13:52;;;;;;;14.95;12.18;;;17.70;99.90;;;;;;5076038;28;20233;-49
2021/07/26 01:16:20;;;;;;;20.90;12.38;;;17.70;99.90;;;;;;5075864;28;20298;-55
2021/07/26 01:18:50;;;;;;;12.52;10.93;;;17.70;99.90;;;;;;5075579;28;20329;-51
2021/07/26 01:21:20;;;;;;;12.98;11.27;;;17.70;99.90;;;;;;5075826;28;20560;-57
2021/07/26 01:23:51;;;;;;;15.35;11.82;;;17.70;99.90;;;;;;5075833;28;20290;-52
2021/07/26 01:26:22;;;;;;;14.00;11.30;;;17.80;99.90;;;;;;5075804;28;20770;-52
2021/07/26 01:28:52;;;;;;;14.13;10.50;;;17.70;99.90;;;;;;5075355;28;20261;-53
2021/07/26 01:31:20;;;;;;;15.43;10.35;;;17.80;99.90;;;;;;5075133;28;20318;-53
2021/07/26 01:33:49;;;;;;;12.10;10.18;;;17.80;99.90;;;;;;5075507;28;20322;-53
2021/07/26 01:36:19;;;;;;;15.30;10.30;;;17.80;99.90;;;;;;5075411;28;20231;-51
2021/07/26 01:38:51;;;;;;;14.85;10.13;;;17.80;99.90;;;;;;5075234;28;20596;-53
2021/07/26 01:41:20;;;;;;;14.85;9.75;;;17.80;99.90;;;;;;5075254;28;20207;-52
2021/07/26 01:44:02;;;;;;;15.00;10.70;;;17.80;99.90;;;;;;5074983;28;20204;-54
2021/07/26 01:46:51;;;;;;;17.33;10.45;;;17.80;99.90;;;;;;5075298;28;20207;-50
2021/07/26 01:49:36;;;;;;;13.55;9.90;;;17.80;99.90;;;;;;5075232;28;20294;-53
2021/07/26 01:52:06;;;;;;;11.30;10.02;;;17.70;99.90;;;;;;5075040;28;20211;-54
2021/07/26 01:54:34;;;;;;;10.95;9.85;;;17.80;99.90;;;;;;5075121;28;20241;-53
2021/07/26 01:57:02;;;;;;;13.63;9.77;;;17.80;99.90;;;;;;5075042;28;20242;-52
2021/07/26 01:59:31;;;;;;;13.88;9.52;;;17.80;99.90;;;;;;5075228;28;20294;-52
2021/07/26 02:01:59;;;;;;;15.25;11.32;;;17.80;99.90;;;;;;5074809;28;20286;-49
2021/07/26 02:04:27;;;;;;;11.48;9.80;;;17.80;99.90;;;;;;5074888;28;20651;-51
2021/07/26 02:06:55;;;;;;;12.43;9.00;;;17.80;99.90;;;;;;5074605;28;21033;-51
2021/07/26 02:09:24;;;;;;;14.55;9.73;;;17.70;99.90;;;;;;5074584;28;20261;-51
2021/07/26 02:11:52;;;;;;;15.38;9.48;;;17.70;99.90;;;;;;5074145;28;20632;-53
2021/07/26 02:14:20;;;;;;;11.07;9.95;;;17.60;99.90;;;;;;5074560;28;20346;-51
2021/07/26 02:16:52;;;;;;;11.10;9.10;;;17.60;99.90;;;;;;5074703;28;20305;-51
2021/07/26 02:19:21;;;;;;;10.93;9.80;;;17.60;99.90;;;;;;5074220;28;20241;-53
2021/07/26 02:21:49;;;;;;;10.45;9.45;;;17.50;99.90;;;;;;5074654;28;20297;-52
2021/07/26 02:24:18;;;;;;;12.07;9.38;;;17.50;99.90;;;;;;5074555;28;20211;-51
2021/07/26 02:26:47;;;;;;;13.10;9.20;;;17.50;99.90;;;;;;5074485;28;20307;-53
2021/07/26 02:29:17;;;;;;;16.83;10.82;;;17.50;99.90;;;;;;5074497;28;20728;-51
2021/07/26 02:31:45;;;;;;;11.63;9.73;;;17.50;99.90;;;;;;5074239;28;20310;-49
2021/07/26 02:34:13;;;;;;;13.57;9.07;;;17.40;99.90;;;;;;5074186;28;20281;-52
2021/07/26 02:36:41;;;;;;;11.52;9.02;;;17.40;99.90;;;;;;5074595;28;20294;-48
2021/07/26 02:39:09;;;;;;;10.35;9.35;;;17.40;99.90;;;;;;5074192;28;20313;-51
2021/07/26 02:41:37;;;;;;;12.25;10.60;;;17.40;99.90;;;;;;5074145;28;20612;-49
2021/07/26 02:44:07;;;;;;;12.13;8.88;;;17.40;99.90;;;;;;5074015;28;20643;-48
2021/07/26 02:46:35;;;;;;;11.23;9.77;;;17.40;99.90;;;;;;5074031;28;20220;-48
2021/07/26 02:49:03;;;;;;;9.68;8.68;;;17.40;99.90;;;;;;5074074;28;20242;-52
2021/07/26 02:51:30;;;;;;;13.30;10.13;;;17.40;99.90;;;;;;5074099;28;20302;-48
2021/07/26 02:53:58;;;;;;;15.43;9.77;;;17.40;99.90;;;;;;5074242;28;20211;-49
2021/07/26 02:56:26;;;;;;;10.15;9.15;;;17.40;99.90;;;;;;5073933;28;20294;-48
2021/07/26 02:58:54;;;;;;;9.80;8.85;;;17.40;99.90;;;;;;5073817;28;20275;-48
2021/07/26 03:01:24;;;;;;;10.13;8.60;;;17.40;99.90;;;;;;5073823;28;20299;-49
2021/07/26 03:03:52;;;;;;;10.50;9.43;;;17.40;99.90;;;;;;5073908;28;20211;-46
2021/07/26 03:06:21;;;;;;;10.70;9.65;;;17.40;99.90;;;;;;5073655;28;20209;-50
2021/07/26 03:08:49;;;;;;;15.75;9.98;;;17.40;99.90;;;;;;5073728;28;20233;-49
2021/07/26 03:11:17;;;;;;;10.63;9.23;;;17.40;99.90;;;;;;5073613;28;20302;-48
2021/07/26 03:13:45;;;;;;;12.45;9.18;;;17.40;99.90;;;;;;5073721;28;20207;-51
2021/07/26 03:16:15;;;;;;;9.23;8.32;;;17.50;99.90;;;;;;5073583;28;20559;-51
2021/07/26 03:18:44;;;;;;;10.10;9.07;;;17.50;99.90;;;;;;5073688;28;20331;-53
2021/07/26 03:21:16;;;;;;;10.25;9.07;;;17.50;99.90;;;;;;5073443;28;20684;-52
2021/07/26 03:23:44;;;;;;;9.13;8.32;;;17.50;99.90;;;;;;5072838;28;20722;-49
2021/07/26 03:26:12;;;;;;;11.15;8.50;;;17.50;99.90;;;;;;5073513;28;20207;-51
2021/07/26 03:28:41;;;;;;;9.55;8.50;;;17.50;99.90;;;;;;5073382;28;20253;-50
2021/07/26 03:31:09;;;;;;;10.85;8.32;;;17.60;99.90;;;;;;5073269;28;20216;-50
2021/07/26 03:33:37;;;;;;;9.60;8.65;;;17.60;99.90;;;;;;5073479;28;20310;-52
2021/07/26 03:36:07;;;;;;;9.15;8.18;;;17.60;99.90;;;;;;5073320;28;20231;-53
2021/07/26 03:38:35;;;;;;;10.95;9.02;;;17.60;99.90;;;;;;5072952;28;20238;-49
2021/07/26 03:41:03;;;;;;;9.52;8.25;;;17.50;99.90;;;;;;5073159;28;20211;-50
2021/07/26 03:43:31;;;;;;;10.13;8.90;;;17.60;99.90;;;;;;5073119;28;20215;-51
2021/07/26 03:45:59;;;;;;;12.07;9.85;;;17.60;99.90;;;;;;5073265;28;20295;-52
2021/07/26 03:48:27;;;;;;;11.07;7.80;;;17.60;99.90;;;;;;5072833;28;20298;-53
2021/07/26 03:50:55;;;;;;;13.27;9.02;;;17.60;99.90;;;;;;5072605;28;20242;-49
2021/07/26 03:53:24;;;;;;;15.55;8.90;;;17.60;99.90;;;;;;5072620;28;20264;-49
2021/07/26 03:55:52;;;;;;;9.50;8.60;;;17.60;99.90;;;;;;5072757;28;20314;-52
2021/07/26 03:58:20;;;;;;;12.32;10.75;;;17.60;99.90;;;;;;5072783;28;20640;-53
2021/07/26 04:00:48;;;;;;;10.95;9.63;;;17.60;99.90;;;;;;5072547;28;20272;-51
2021/07/26 04:03:21;;;;;;;11.35;10.05;;;17.70;99.90;;;;;;5072413;28;20657;-51
2021/07/26 04:05:54;;;;;;;12.63;8.65;;;17.70;99.90;;;;;;5072320;28;20286;-51
2021/07/26 04:08:25;;;;;;;11.45;8.45;;;17.70;99.90;;;;;;5072408;28;20218;-53
2021/07/26 04:10:59;;;;;;;11.68;8.30;;;17.70;99.90;;;;;;5072576;28;20585;-54
2021/07/26 04:13:27;;;;;;;12.25;7.65;;;17.70;99.90;;;;;;5072282;28;20206;-51
2021/07/26 04:15:55;;;;;;;10.02;7.32;;;17.70;99.90;;;;;;5072203;28;20310;-52
2021/07/26 04:18:25;;;;;;;13.50;8.10;;;17.60;99.90;;;;;;5072349;28;20338;-51
2021/07/26 04:20:53;;;;;;;15.50;8.68;;;17.70;99.90;;;;;;5072479;28;20222;-52
2021/07/26 04:23:21;;;;;;;13.43;7.50;;;17.70;99.90;;;;;;5071998;28;20667;-47
2021/07/26 04:25:51;;;;;;;10.25;8.95;;;17.70;99.90;;;;;;5072095;28;20239;-50
2021/07/26 04:28:20;;;;;;;10.60;7.55;;;17.80;99.90;;;;;;5072405;28;20218;-48
2021/07/26 04:30:47;;;;;;;8.45;7.65;;;17.80;99.90;;;;;;5072372;28;20290;-50
2021/07/26 04:33:15;;;;;;;10.63;6.97;;;17.80;99.90;;;;;;5072252;28;20218;-53
2021/07/26 04:35:44;;;;;;;10.75;7.35;;;17.90;99.90;;;;;;5073719;28;20389;-51
2021/07/26 04:38:12;;;;;;;8.70;7.75;;;18.00;99.90;;;;;;5072095;28;20254;-50
2021/07/26 04:40:40;;;;;;;8.27;7.40;;;18.10;99.90;;;;;;5073213;28;20203;-51
2021/07/26 04:43:09;;;;;;;10.20;6.40;;;18.10;99.90;;;;;;5072438;28;20290;-46
2021/07/26 04:45:37;;;;;;;9.98;6.68;;;18.20;99.90;;;;;;5075187;28;20302;-46
2021/07/26 04:48:05;;;;;;;11.27;6.45;;;18.30;99.90;;;;;;5074443;28;20214;-48
2021/07/26 04:50:34;;;;;;;9.98;6.55;;;18.30;99.90;;;;;;5072912;28;20737;-46
2021/07/26 04:53:02;;;;;;;8.23;6.65;;;18.30;99.90;;;;;;5071927;28;20314;-46
2021/07/26 04:55:30;;;;;;;9.18;6.45;;;18.40;99.90;;;;;;5071684;28;20311;-45
2021/07/26 04:57:58;;;;;;;9.27;6.38;;;18.40;99.90;;;;;;5072033;28;20299;-49
2021/07/26 05:00:29;;;;;;;10.82;8.52;;;18.40;99.90;;;;;;5072014;28;20302;-46
2021/07/26 05:02:57;;;;;;;10.30;8.18;;;18.40;99.90;;;;;;5071958;28;20211;-47
2021/07/26 05:05:25;;;;;;;10.52;7.95;;;18.50;99.90;;;;;;5071707;28;20301;-47
2021/07/26 05:07:53;;;;;;;18.95;8.65;;;18.50;99.90;;;;;;5071800;28;20213;-48
2021/07/26 05:10:21;;;;;;;10.05;7.75;;;18.50;99.90;;;;;;5071673;28;20211;-46
2021/07/26 05:12:49;;;;;;;10.02;8.73;;;18.50;99.90;;;;;;5072058;28;20203;-44
2021/07/26 05:15:17;;;;;;;13.52;7.70;;;18.50;99.90;;;;;;5071811;28;20207;-46
2021/07/26 05:17:46;;;;;;;10.40;7.05;;;18.50;99.90;;;;;;5071699;28;20344;-45
2021/07/26 05:20:14;;;;;;;12.32;7.30;;;18.50;99.90;;;;;;5071807;28;20303;-46
2021/07/26 05:22:42;;;;;;;10.70;7.65;;;18.50;99.90;;;;;;5071620;28;20294;-46
2021/07/26 05:25:10;;;;;;;8.60;6.93;;;18.50;99.90;;;;;;5071837;28;20334;-48
2021/07/26 05:27:39;;;;;;;12.57;8.25;;;18.50;99.90;;;;;;5071656;28;20294;-50
2021/07/26 05:30:08;;;;;;;9.13;7.35;;;18.50;99.90;;;;;;5071663;28;20397;-48
2021/07/26 05:32:36;;;;;;;7.88;6.90;;;18.50;99.90;;;;;;5071508;28;20757;-46
2021/07/26 05:35:07;;;;;;;13.80;8.30;;;18.60;99.90;;;;;;5071425;28;20302;-48
2021/07/26 05:37:35;;;;;;;10.65;7.35;;;18.70;99.90;;;;;;5071559;28;20558;-51
2021/07/26 05:40:03;;;;;;;11.85;7.05;;;18.70;99.90;;;;;;5071559;28;20207;-48
2021/07/26 05:42:31;;;;;;;11.57;7.85;;;18.70;99.90;;;;;;5071356;28;20214;-50
2021/07/26 05:45:03;;;;;;;8.95;7.78;;;18.80;99.90;;;;;;5071771;28;20231;-53
2021/07/26 05:47:31;;;;;;;10.05;8.68;;;18.90;99.90;;;;;;5073438;28;20265;-45
2021/07/26 05:49:59;;;;;;;10.38;7.07;;;18.90;99.90;;;;;;5075019;28;20822;-47
2021/07/26 05:52:28;;;;;;;7.32;6.53;;;18.90;99.90;;;;;;5075506;28;20676;-52
2021/07/26 05:54:56;;;;;;;9.98;6.90;;;18.90;99.90;;;;;;5074835;28;20234;-45
2021/07/26 05:57:26;;;;;;;10.50;7.13;;;19.00;99.90;;;;;;5075064;28;20243;-46
2021/07/26 05:59:57;;;;;;;10.20;6.70;;;19.10;99.90;;;;;;5075065;28;20294;-49
2021/07/26 06:02:25;;;;;;;8.52;6.82;;;19.20;99.90;;;;;;5074941;28;20208;-50
2021/07/26 06:04:53;;;;;;;7.60;6.68;;;19.20;99.90;;;;;;5075552;28;20663;-51
2021/07/26 06:07:21;;;;;;;8.73;6.43;;;19.20;99.90;;;;;;5075422;28;20721;-48
2021/07/26 06:09:51;;;;;;;9.75;7.03;;;19.20;99.90;;;;;;5074680;28;20265;-49
2021/07/26 06:12:19;;;;;;;13.18;7.43;;;19.20;99.90;;;;;;5074487;28;20298;-50
2021/07/26 06:14:47;;;;;;;9.15;6.78;;;19.20;99.90;;;;;;5074506;28;20211;-48
2021/07/26 06:17:16;;;;;;;10.85;6.93;;;19.30;99.90;;;;;;5074745;28;20357;-47
2021/07/26 06:19:44;;;;;;;11.65;6.85;;;19.30;99.90;;;;;;5074711;28;20330;-46
2021/07/26 06:22:12;;;;;;;13.18;9.38;;;19.40;99.90;;;;;;5074728;28;20353;-49
2021/07/26 06:24:40;;;;;;;9.48;6.60;;;19.40;99.90;;;;;;5074419;28;20648;-48
2021/07/26 06:27:09;;;;;;;8.32;6.00;;;19.40;99.90;;;;;;5074176;28;20214;-45
2021/07/26 06:29:37;;;;;;;12.20;7.00;;;19.40;99.90;;;;;;5074215;28;20217;-45
2021/07/26 06:32:06;;;;;;;23.13;20.83;;;19.40;99.90;;;;;;5074333;28;20250;-50
2021/07/26 06:34:34;;;;;;;9.50;8.48;;;19.40;99.90;;;;;;5074335;28;20284;-47
2021/07/26 06:37:02;;;;;;;14.00;7.55;;;19.40;99.90;;;;;;5073982;28;20284;-48
2021/07/26 06:39:30;;;;;;;13.30;9.35;;;19.40;99.90;;;;;;5074207;28;20298;-47
2021/07/26 06:41:58;;;;;;;11.05;8.52;;;19.40;99.90;;;;;;5073983;28;20298;-48
2021/07/26 06:44:27;;;;;;;10.95;8.82;;;19.40;99.90;;;;;;5073599;28;20734;-46
2021/07/26 06:46:55;;;;;;;12.10;7.78;;;19.40;99.90;;;;;;5074129;28;20214;-48
2021/07/26 06:49:23;;;;;;;16.40;8.48;;;19.40;99.90;;;;;;5073879;28;20246;-47
2021/07/26 06:51:51;;;;;;;11.75;7.97;;;19.50;99.90;;;;;;5073673;28;20215;-51
2021/07/26 06:54:18;;;;;;;12.32;7.53;;;19.50;99.90;;;;;;5073377;28;20302;-49
2021/07/26 06:56:46;;;;;;;11.50;5.95;;;19.50;99.90;;;;;;5073905;28;20485;-46
2021/07/26 06:59:14;;;;;;;8.77;6.30;;;19.50;99.90;;;;;;5072739;28;20211;-49
2021/07/26 07:01:43;;;;;;;9.88;6.53;;;19.50;99.90;;;;;;5073790;28;20294;-49
2021/07/26 07:04:13;;;;;;;10.75;6.65;;;19.60;99.90;;;;;;5073693;28;20239;-52
2021/07/26 07:06:41;;;;;;;7.13;5.97;;;19.60;99.90;;;;;;5073477;28;20203;-51
2021/07/26 07:09:09;;;;;;;10.85;8.07;;;19.60;99.90;;;;;;5073560;28;20628;-51
2021/07/26 07:11:37;;;;;;;11.73;7.43;;;19.60;99.90;;;;;;5073491;28;20215;-46
2021/07/26 07:14:05;;;;;;;12.15;6.28;;;19.70;99.90;;;;;;5073452;28;20268;-47
2021/07/26 07:16:33;;;;;;;7.40;6.70;;;19.70;99.90;;;;;;5073125;28;20211;-48
2021/07/26 07:19:02;;;;;;;8.35;6.25;;;19.70;99.90;;;;;;5073077;28;20701;-47
2021/07/26 07:21:31;;;;;;;9.32;6.63;;;19.80;99.90;;;;;;5073226;28;20211;-51
2021/07/26 07:24:01;;;;;;;7.75;6.80;;;19.80;99.90;;;;;;5073369;28;20290;-50
2021/07/26 07:26:31;;;;;;;6.63;5.90;;;19.80;99.90;;;;;;5073466;28;20629;-52
2021/07/26 07:28:59;;;;;;;8.55;6.40;;;19.90;99.90;;;;;;5073216;28;20247;-47
2021/07/26 07:31:27;;;;;;;8.15;6.40;;;19.90;99.90;;;;;;5072977;28;20215;-47
2021/07/26 07:33:56;;;;;;;8.00;6.05;;;19.90;99.90;;;;;;5073013;28;20290;-45
2021/07/26 07:36:26;;;;;;;9.40;6.22;;;20.00;99.90;;;;;;5073214;28;20229;-47
2021/07/26 07:38:56;;;;;;;9.00;5.78;;;20.10;99.90;;;;;;5072843;28;20589;-45
2021/07/26 07:41:24;;;;;;;7.72;5.97;;;20.30;99.90;;;;;;5073119;28;20252;-45
2021/07/26 07:43:53;;;;;;;11.02;6.53;;;20.30;99.90;;;;;;5072984;28;20235;-46
2021/07/26 07:46:21;;;;;;;6.78;5.53;;;20.40;99.90;;;;;;5072738;28;20211;-47
2021/07/26 07:48:50;;;;;;;6.30;5.70;;;20.40;99.90;;;;;;5073169;28;20211;-50
2021/07/26 07:51:18;;;;;;;8.43;5.60;;;20.30;99.90;;;;;;5072834;28;20644;-46
2021/07/26 07:53:51;;;;;;;11.80;5.78;;;20.30;99.90;;;;;;5072760;28;20735;-51
2021/07/26 07:56:19;;;;;;;6.82;6.22;;;20.20;99.90;;;;;;5072700;28;20243;-47
2021/07/26 07:58:49;;;;;;;13.18;5.75;;;20.10;99.90;;;;;;5072558;28;20227;-50
2021/07/26 08:01:17;;;;;;;6.63;5.20;;;20.00;99.90;;;;;;5072886;28;20225;-49
2021/07/26 08:03:45;;;;;;;7.18;5.70;;;20.00;99.90;;;;;;5072916;28;20208;-47
2021/07/26 08:06:13;;;;;;;7.47;6.05;;;20.10;99.90;;;;;;5072712;28;20207;-50
2021/07/26 08:08:41;;;;;;;5.30;4.80;;;20.20;99.90;;;;;;5072908;28;20283;-47
2021/07/26 08:11:13;;;;;;;5.60;5.10;;;20.30;99.90;;;;;;5072391;28;20294;-46
2021/07/26 08:13:41;;;;;;;5.03;4.28;;;20.40;99.90;;;;;;5072463;28;20688;-51
2021/07/26 08:16:09;;;;;;;8.93;4.50;;;20.40;99.90;;;;;;5072445;28;20203;-47
2021/07/26 08:18:57;;;;;;;8.32;4.07;;;20.40;99.90;;;;;;5072067;28;20721;-47
2021/07/26 08:21:25;;;;;;;5.22;4.72;;;20.40;99.90;;;;;;5072399;28;20258;-47
2021/07/26 08:23:52;;;;;;;6.85;4.90;;;20.50;99.90;;;;;;5072229;28;20294;-46
2021/07/26 08:26:22;;;;;;;5.30;4.80;;;20.60;99.90;;;;;;5072047;28;20211;-44
2021/07/26 08:28:49;;;;;;;6.63;5.47;;;20.70;99.90;;;;;;5071859;28;20226;-48
2021/07/26 08:31:17;;;;;;;6.68;5.07;;;20.90;99.90;;;;;;5071854;28;20306;-45
2021/07/26 08:33:45;;;;;;;8.20;5.20;;;21.10;99.90;;;;;;5071837;28;20265;-47
2021/07/26 08:36:13;;;;;;;6.43;4.95;;;21.20;99.90;;;;;;5072104;28;20299;-45
2021/07/26 08:38:41;;;;;;;7.43;5.38;;;21.40;99.90;;;;;;5071729;28;20318;-49
2021/07/26 08:41:09;;;;;;;5.65;5.07;;;21.50;99.90;;;;;;5071882;28;20262;-46
2021/07/26 08:43:39;;;;;;;5.40;4.40;;;21.60;99.90;;;;;;5072271;28;20243;-48
2021/07/26 08:46:09;;;;;;;7.00;5.07;;;21.70;99.90;;;;;;5071696;28;20409;-47
2021/07/26 08:48:37;;;;;;;4.35;3.95;;;21.80;99.90;;;;;;5071658;28;20629;-45
2021/07/26 08:51:07;;;;;;;6.90;5.30;;;21.90;99.90;;;;;;5071789;28;20278;-47
2021/07/26 08:53:38;;;;;;;4.65;4.15;;;22.00;99.90;;;;;;5071959;28;20290;-49
2021/07/26 08:56:07;;;;;;;7.38;4.97;;;22.00;99.90;;;;;;5072008;28;20253;-49
2021/07/26 08:58:35;;;;;;;4.05;3.53;;;22.00;99.90;;;;;;5071781;28;20223;-46
2021/07/26 09:01:06;;;;;;;4.63;4.15;;;22.10;99.90;;;;;;5071780;28;20604;-49
2021/07/26 09:03:34;;;;;;;5.63;4.50;;;22.20;99.90;;;;;;5071694;28;20302;-48
2021/07/26 09:06:02;;;;;;;7.00;5.90;;;22.40;99.90;;;;;;5071883;28;20211;-45
2021/07/26 09:08:34;;;;;;;5.80;4.53;;;22.60;99.90;;;;;;5071776;28;20294;-47
2021/07/26 09:11:03;;;;;;;4.93;4.43;;;22.90;99.90;;;;;;5071620;28;20663;-46
2021/07/26 09:13:35;;;;;;;5.70;4.78;;;22.90;99.90;;;;;;5071922;28;20234;-49
2021/07/26 09:16:18;;;;;;;6.20;4.38;;;23.00;99.90;;;;;;5071426;28;20243;-45
2021/07/26 09:18:48;;;;;;;6.80;4.40;;;23.00;99.90;;;;;;5071467;28;20231;-50
2021/07/26 09:21:16;;;;;;;4.47;4.10;;;22.90;99.90;;;;;;5071726;28;20648;-49
2021/07/26 09:24:04;;;;;;;5.82;4.07;;;22.90;99.90;;;;;;5075652;28;20229;-48
2021/07/26 09:26:32;;;;;;;4.88;4.38;;;22.90;99.90;;;;;;5075305;28;20279;-49
2021/07/26 09:29:01;;;;;;;6.30;3.80;;;23.00;99.90;;;;;;5075443;28;20231;-47
2021/07/26 09:31:30;;;;;;;4.72;4.32;;;23.00;99.90;;;;;;5075347;28;20207;-47
2021/07/26 09:34:21;;;;;;;4.32;3.58;;;23.10;99.90;;;;;;5075330;28;20655;-45
2021/07/26 09:36:49;;;;;;;4.80;4.40;;;23.20;99.90;;;;;;5075192;28;20207;-46
2021/07/26 09:39:25;;;;;;;5.93;4.78;;;23.20;99.90;;;;;;5075047;28;20317;-49
2021/07/26 09:41:54;;;;;;;8.63;4.47;;;23.30;99.90;;;;;;5075111;28;20301;-49
2021/07/26 09:44:23;;;;;;;5.60;4.65;;;23.50;99.90;;;;;;5075248;28;20217;-46
2021/07/26 09:46:54;;;;;;;8.90;7.07;;;23.70;99.90;;;;;;5075087;28;20315;-49
2021/07/26 09:49:22;;;;;;;5.72;3.88;;;24.00;99.90;;;;;;5074819;28;20203;-47
2021/07/26 09:52:04;;;;;;;4.57;4.18;;;24.20;99.90;;;;;;5075207;28;20211;-49
2021/07/26 09:54:43;;;;;;;4.15;3.75;;;24.40;99.90;;;;;;5074885;28;20287;-45
2021/07/26 09:57:19;;;;;;;6.45;3.75;;;24.60;99.90;;;;;;5074766;28;20207;-46
2021/07/26 09:59:48;;;;;;;5.20;3.67;;;24.60;99.90;;;;;;5074736;28;20310;-50
2021/07/26 10:02:19;;;;;;;5.00;4.50;;;24.60;99.90;;;;;;5074841;28;20253;-48
2021/07/26 10:04:48;;;;;;;4.20;3.53;;;24.60;99.90;;;;;;5074938;28;20211;-47
2021/07/26 10:07:17;;;;;;;4.90;4.20;;;24.60;99.90;;;;;;5074766;28;20302;-47
2021/07/26 10:09:47;;;;;;;5.25;4.35;;;24.70;99.90;;;;;;5074735;28;20210;-46
2021/07/26 10:12:16;;;;;;;5.13;4.53;;;24.70;99.90;;;;;;5074536;28;20214;-48
2021/07/26 10:14:47;;;;;;;4.22;3.83;;;24.70;99.90;;;;;;5074499;28;20637;-46
2021/07/26 10:17:15;;;;;;;3.53;3.22;;;24.60;99.90;;;;;;5074474;28;20231;-46
2021/07/26 10:19:44;;;;;;;4.93;4.07;;;24.60;99.90;;;;;;5074059;28;20239;-48
2021/07/26 10:22:15;;;;;;;5.03;4.57;;;24.60;99.90;;;;;;5074464;28;20211;-50
2021/07/26 10:24:47;;;;;;;4.72;3.75;;;24.60;99.90;;;;;;5074205;28;20218;-47
2021/07/26 10:27:20;;;;;;;4.60;4.20;;;24.50;99.90;;;;;;5074265;28;20207;-48
2021/07/26 10:29:52;;;;;;;4.97;4.47;;;24.60;99.90;;;;;;5074130;28;20207;-48
2021/07/26 10:32:37;;;;;;;5.10;4.30;;;24.80;99.90;;;;;;5074154;28;20318;-45
2021/07/26 10:35:33;;;;;;;6.35;4.60;;;25.10;99.90;;;;;;5073319;28;20208;-47
2021/07/26 10:38:01;;;;;;;6.95;4.45;;;25.20;99.90;;;;;;5074209;28;20295;-47
2021/07/26 10:40:30;;;;;;;4.55;4.07;;;25.20;99.90;;;;;;5074041;28;20227;-46
2021/07/26 10:43:01;;;;;;;4.93;3.60;;;25.20;99.90;;;;;;5074256;28;20222;-47
2021/07/26 10:45:58;;;;;;;7.43;3.80;;;25.20;99.90;;;;;;5074150;28;20298;-46
2021/07/26 10:48:36;;;;;;;4.38;3.97;;;25.20;99.90;;;;;;5073946;28;20613;-48
2021/07/26 10:51:36;;;;;;;9.82;8.43;;;25.20;99.90;;;;;;5074050;28;20290;-47
2021/07/26 10:54:05;;;;;;;4.18;3.50;;;25.40;99.90;;;;;;5073756;28;20298;-49
2021/07/26 10:57:05;;;;;;;5.40;4.00;;;25.50;99.90;;;;;;5073994;28;20211;-47
2021/07/26 11:00:07;;;;;;;5.75;5.20;;;25.60;99.30;;;;;;5073850;28;20235;-44
2021/07/26 11:02:35;;;;;;;4.70;4.30;;;25.50;99.80;;;;;;5073679;28;20246;-46
2021/07/26 11:05:34;;;;;;;3.30;3.10;;;25.40;99.90;;;;;;5073894;28;20239;-49
2021/07/26 11:08:28;;;;;;;3.92;3.63;;;25.30;99.70;;;;;;5073954;28;20214;-46
2021/07/26 11:10:58;;;;;;;8.88;6.78;;;25.20;99.90;;;;;;5063680;28;20235;-48
2021/07/26 11:13:59;;;;;;;4.80;3.67;;;25.20;99.90;;;;;;5073465;28;20294;-49
2021/07/26 11:17:00;;;;;;;5.60;3.70;;;25.20;99.70;;;;;;5073288;28;20297;-44
2021/07/26 11:19:35;;;;;;;5.57;5.07;;;25.20;99.10;;;;;;5073176;28;20634;-51
2021/07/26 11:22:05;;;;;;;4.03;3.50;;;25.10;99.30;;;;;;5073096;28;20209;-48
2021/07/26 11:24:48;;;;;;;3.95;3.55;;;25.10;99.30;;;;;;5073209;28;20294;-50
2021/07/26 11:27:18;;;;;;;4.05;3.75;;;25.10;99.00;;;;;;5073121;28;20208;-47
2021/07/26 11:29:49;;;;;;;6.35;3.75;;;25.00;99.10;;;;;;5073376;28;20207;-49
2021/07/26 11:32:19;;;;;;;4.57;4.18;;;25.00;98.90;;;;;;5073183;28;20299;-49
2021/07/26 11:34:52;;;;;;;5.63;4.00;;;25.10;98.70;;;;;;5073195;28;20272;-47
2021/07/26 11:37:29;;;;;;;5.25;4.00;;;25.20;98.70;;;;;;5072959;28;20639;-48
2021/07/26 11:39:59;;;;;;;5.95;4.00;;;25.30;98.50;;;;;;5073200;28;20303;-47
2021/07/26 11:42:28;;;;;;;8.38;4.88;;;25.30;98.30;;;;;;5072486;28;20639;-48
2021/07/26 11:44:57;;;;;;;3.35;3.05;;;25.10;98.20;;;;;;5072562;28;20249;-48
2021/07/26 11:47:33;;;;;;;4.30;3.40;;;25.10;98.10;;;;;;5072745;28;20210;-48
2021/07/26 11:50:02;;;;;;;4.85;4.03;;;25.10;97.60;;;;;;5072794;28;20249;-49
2021/07/26 11:52:30;;;;;;;5.55;3.35;;;25.20;97.60;;;;;;5072922;28;20324;-50
2021/07/26 11:54:59;;;;;;;6.25;5.65;;;25.30;97.50;;;;;;5072281;28;20302;-47
2021/07/26 11:57:28;;;;;;;4.60;4.20;;;25.40;97.20;;;;;;5072501;28;20208;-46
2021/07/26 11:59:59;;;;;;;4.55;4.15;;;25.50;97.00;;;;;;5072465;28;20354;-47
2021/07/26 12:02:30;;;;;;;4.85;4.45;;;25.50;96.80;;;;;;5072611;28;20243;-50
2021/07/26 12:05:04;;;;;;;5.47;3.90;;;25.60;96.70;;;;;;5072550;28;20247;-50
2021/07/26 12:07:42;;;;;;;5.03;3.65;;;25.80;96.30;;;;;;5072445;28;20302;-50
2021/07/26 12:10:13;;;;;;;9.45;6.28;;;25.80;96.10;;;;;;5072498;28;20233;-49
2021/07/26 12:12:45;;;;;;;5.22;4.72;;;25.80;96.00;;;;;;5072326;28;20347;-46
2021/07/26 12:15:23;;;;;;;5.57;5.15;;;25.70;96.20;;;;;;5072078;28;20277;-48
2021/07/26 12:18:06;;;;;;;5.38;4.03;;;25.70;96.40;;;;;;5072187;28;20278;-49
2021/07/26 12:20:36;;;;;;;6.47;4.57;;;25.80;96.10;;;;;;5072217;28;20313;-50
2021/07/26 12:23:15;;;;;;;5.32;3.95;;;25.90;96.20;;;;;;5071963;28;20215;-49
2021/07/26 12:25:50;;;;;;;5.82;4.00;;;26.00;96.00;;;;;;5072115;28;20302;-49
2021/07/26 12:28:19;;;;;;;4.35;3.95;;;25.90;96.20;;;;;;5071941;28;20203;-46
2021/07/26 12:30:51;;;;;;;5.00;4.53;;;25.80;96.20;;;;;;5072287;28;20290;-49
2021/07/26 12:33:30;;;;;;;4.60;4.20;;;25.90;96.20;;;;;;5071949;28;20207;-47
2021/07/26 12:36:11;;;;;;;6.55;4.20;;;25.90;96.10;;;;;;5071907;28;20723;-50
2021/07/26 12:38:39;;;;;;;5.00;4.55;;;26.00;96.00;;;;;;5072009;28;20211;-47
2021/07/26 12:41:10;;;;;;;5.18;4.25;;;26.20;96.00;;;;;;5071865;28;20608;-50
2021/07/26 12:43:39;;;;;;;4.60;4.20;;;26.30;95.80;;;;;;5072082;28;20207;-49
2021/07/26 12:46:08;;;;;;;4.70;4.15;;;26.20;95.90;;;;;;5071951;28;20261;-47
2021/07/26 12:48:37;;;;;;;3.88;3.55;;;26.40;96.00;;;;;;5071956;28;20211;-47
2021/07/26 12:51:07;;;;;;;6.30;5.25;;;26.60;95.70;;;;;;5071864;28;20615;-45
2021/07/26 12:53:35;;;;;;;5.38;4.25;;;27.00;95.30;;;;;;5071667;28;20643;-46
2021/07/26 12:56:03;;;;;;;3.95;3.65;;;27.50;94.90;;;;;;5071266;28;20613;-46
2021/07/26 12:58:32;;;;;;;4.32;3.72;;;27.70;94.30;;;;;;5071674;28;20637;-50